Time;durP1;ratioP1;P1;durP2;ratioP2;P2;SDS_P1;SDS_P2;PMS_P1;PMS_P2;Temp;Humidity;BMP_temperature;BMP_pressure;BME280_temperature;BME280_humidity;BME280_pressure;Samples;Min_cycle;Max_cycle;Signal;HPM_P1;HPM_P2
2022/08/30 00:01:04;;;;;;;11.00;6.70;;;;;;;15.00;82.67;100708.27;84750;1327;23034;-74
2022/08/30 00:03:14;;;;;;;10.10;6.00;;;;;;;15.00;82.62;100705.08;84740;1330;24392;-74
2022/08/30 00:05:31;;;;;;;8.30;5.10;;;;;;;14.98;82.57;100708.52;84747;1330;22576;-71
2022/08/30 00:07:53;;;;;;;7.60;5.60;;;;;;;14.97;82.71;100709.13;84751;1327;24048;-72
2022/08/30 00:10:10;;;;;;;6.60;5.50;;;;;;;14.94;82.72;100709.09;84675;1332;25438;-71
2022/08/30 00:12:26;;;;;;;9.80;7.10;;;;;;;14.92;82.85;100708.44;84749;1327;22844;-70
2022/08/30 00:14:45;;;;;;;7.60;6.40;;;;;;;14.92;82.88;100708.10;84787;1328;22858;-70
2022/08/30 00:16:57;;;;;;;9.40;6.60;;;;;;;14.89;82.75;100711.08;84637;1332;22613;-70
2022/08/30 00:19:08;;;;;;;11.80;6.40;;;;;;;14.87;82.89;100711.17;84739;1327;25606;-72
2022/08/30 00:21:17;;;;;;;8.30;6.60;;;;;;;14.85;82.93;100714.41;84758;1330;25471;-73
2022/08/30 00:23:32;;;;;;;7.30;6.60;;;;;;;14.83;82.86;100715.25;84818;1331;22591;-71
2022/08/30 00:25:45;;;;;;;10.80;6.50;;;;;;;14.80;83.02;100709.77;84755;1327;22667;-70
2022/08/30 00:27:55;;;;;;;12.70;7.00;;;;;;;14.77;83.07;100715.36;84769;1327;22645;-68
2022/08/30 00:30:06;;;;;;;6.10;5.40;;;;;;;14.75;83.09;100715.49;84782;1328;25341;-72
2022/08/30 00:32:17;;;;;;;8.60;7.40;;;;;;;14.72;83.15;100713.71;84768;1326;22670;-71
2022/08/30 00:34:31;;;;;;;8.90;6.80;;;;;;;14.69;83.15;100710.50;84711;1331;22646;-71
2022/08/30 00:36:42;;;;;;;12.00;6.40;;;;;;;14.68;83.44;100710.74;84738;1330;22629;-72
2022/08/30 00:38:56;;;;;;;11.30;7.30;;;;;;;14.66;83.39;100709.77;84733;1332;23925;-69
2022/08/30 00:41:05;;;;;;;10.70;7.30;;;;;;;14.64;83.56;100712.67;84755;1329;25345;-69
2022/08/30 00:43:17;;;;;;;7.40;6.70;;;;;;;14.64;83.59;100708.48;84743;1329;23958;-68
2022/08/30 00:45:34;;;;;;;10.70;6.60;;;;;;;14.62;83.66;100711.73;84761;1331;24270;-69
2022/08/30 00:47:45;;;;;;;12.20;7.20;;;;;;;14.61;83.73;100712.81;84699;1328;22622;-69
2022/08/30 00:50:02;;;;;;;11.70;7.80;;;;;;;14.60;83.69;100714.14;84753;1330;24393;-70
2022/08/30 00:52:20;;;;;;;7.40;6.60;;;;;;;14.57;83.71;100712.34;84721;1330;25621;-68
2022/08/30 00:54:40;;;;;;;11.60;7.10;;;;;;;14.52;83.76;100706.94;84673;1330;22609;-69
2022/08/30 00:56:57;;;;;;;8.50;7.10;;;;;;;14.50;83.70;100710.77;84649;1331;22860;-69
2022/08/30 00:59:10;;;;;;;7.30;6.20;;;;;;;14.47;83.96;100711.22;84780;1327;24114;-72
2022/08/30 01:01:19;;;;;;;9.40;7.20;;;;;;;14.45;84.14;100711.12;84561;1335;22587;-74
2022/08/30 01:03:32;;;;;;;8.10;7.10;;;;;;;14.44;84.22;100708.16;84653;1330;22655;-70
2022/08/30 01:05:44;;;;;;;7.40;6.70;;;;;;;14.44;84.27;100706.61;84744;1328;22590;-71
2022/08/30 01:08:00;;;;;;;8.80;6.60;;;;;;;14.42;84.41;100707.59;84763;1326;22648;-68
2022/08/30 01:10:15;;;;;;;8.20;7.00;;;;;;;14.39;84.35;100703.70;84676;1330;24271;-74
2022/08/30 01:12:26;;;;;;;9.30;6.60;;;;;;;14.35;84.36;100707.56;84745;1330;22633;-72
2022/08/30 01:14:44;;;;;;;12.40;6.60;;;;;;;14.34;84.60;100707.98;84718;1325;22690;-71
2022/08/30 01:17:00;;;;;;;7.20;6.50;;;;;;;14.33;84.75;100705.77;84735;1330;22631;-71
2022/08/30 01:19:18;;;;;;;8.40;7.70;;;;;;;14.29;84.65;100709.77;84691;1329;22754;-71
2022/08/30 01:21:35;;;;;;;9.00;7.00;;;;;;;14.26;84.73;100709.60;84763;1330;25942;-72
2022/08/30 01:23:47;;;;;;;7.80;7.00;;;;;;;14.24;84.84;100713.22;84615;1330;22692;-70
2022/08/30 01:26:01;;;;;;;10.30;7.00;;;;;;;14.23;85.10;100710.97;84774;1331;22580;-69
2022/08/30 01:28:21;;;;;;;9.30;6.60;;;;;;;14.22;85.04;100711.36;84753;1327;22596;-70
2022/08/30 01:30:41;;;;;;;9.50;6.70;;;;;;;14.20;85.06;100708.14;84656;1331;22591;-71
2022/08/30 01:33:08;;;;;;;8.30;7.20;;;;;;;14.16;85.06;100709.52;84654;1331;22590;-73
2022/08/30 01:35:27;;;;;;;11.00;8.00;;;;;;;14.14;85.26;100705.77;84628;1330;24406;-72
2022/08/30 01:37:38;;;;;;;8.70;6.80;;;;;;;14.13;85.38;100708.96;84610;1330;22696;-73
2022/08/30 01:39:53;;;;;;;10.60;7.00;;;;;;;14.11;85.32;100708.01;84622;1333;22618;-73
2022/08/30 01:42:06;;;;;;;8.60;6.70;;;;;;;14.08;85.38;100708.34;84685;1329;25289;-73
2022/08/30 01:44:21;;;;;;;10.70;7.40;;;;;;;14.06;85.50;100707.59;84516;1336;22614;-71
2022/08/30 01:46:35;;;;;;;7.10;6.40;;;;;;;14.03;85.53;100714.19;84549;1332;22596;-74
2022/08/30 01:48:47;;;;;;;8.40;7.10;;;;;;;14.02;85.63;100715.30;84575;1331;22609;-72
2022/08/30 01:51:01;;;;;;;8.20;7.40;;;;;;;14.00;85.76;100717.31;84710;1332;22588;-69
2022/08/30 01:53:24;;;;;;;10.00;7.50;;;;;;;13.99;85.84;100717.00;84669;1330;22647;-68
2022/08/30 01:55:37;;;;;;;;;;;;;;;13.96;85.96;100716.61;84692;1329;24756;-69
2022/08/30 01:57:50;;;;;;;8.70;7.10;;;;;;;13.91;86.22;100713.86;84649;1333;22595;-69
2022/08/30 02:00:02;;;;;;;8.70;7.80;;;;;;;13.89;86.21;100710.08;84574;1331;26530;-73
2022/08/30 02:02:21;;;;;;;8.70;7.40;;;;;;;13.87;86.40;100710.89;84678;1332;22624;-72
2022/08/30 02:04:41;;;;;;;12.00;7.70;;;;;;;13.86;86.37;100709.34;84661;1330;24170;-71
2022/08/30 02:06:54;;;;;;;8.80;7.70;;;;;;;13.84;86.44;100708.39;84677;1330;22697;-71
2022/08/30 02:09:06;;;;;;;8.40;7.60;;;;;;;13.82;86.51;100709.73;84684;1329;23924;-71
2022/08/30 02:11:17;;;;;;;10.30;7.10;;;;;;;13.81;86.57;100706.61;84644;1327;22652;-71
2022/08/30 02:13:38;;;;;;;8.80;7.70;;;;;;;13.80;86.85;100707.52;84694;1327;24345;-70
2022/08/30 02:15:57;;;;;;;8.20;7.30;;;;;;;13.80;86.89;100710.20;84605;1333;25930;-71
2022/08/30 02:18:10;;;;;;;10.20;7.50;;;;;;;13.79;86.87;100713.72;84584;1333;22716;-70
2022/08/30 02:20:22;;;;;;;11.30;8.90;;;;;;;13.78;87.10;100711.83;84482;1333;22721;-74
2022/08/30 02:22:33;;;;;;;7.70;6.80;;;;;;;13.76;87.00;100706.84;84538;1332;22714;-74
2022/08/30 02:24:47;;;;;;;8.90;7.90;;;;;;;13.75;86.94;100709.02;84547;1332;25342;-74
2022/08/30 02:27:01;;;;;;;8.20;6.90;;;;;;;13.72;87.05;100710.17;84653;1330;22591;-74
2022/08/30 02:29:19;;;;;;;12.50;8.60;;;;;;;13.72;87.10;100708.27;84690;1331;22609;-71
2022/08/30 02:31:34;;;;;;;9.10;7.20;;;;;;;13.69;87.07;100710.49;84568;1331;22716;-70
2022/08/30 02:33:48;;;;;;;8.50;7.60;;;;;;;13.67;87.23;100710.42;84683;1332;22590;-74
2022/08/30 02:36:12;;;;;;;9.20;7.80;;;;;;;13.65;87.39;100713.66;84672;1328;23006;-72
2022/08/30 02:38:26;;;;;;;9.70;7.40;;;;;;;13.65;87.52;100717.52;84608;1330;22609;-71
2022/08/30 02:40:41;;;;;;;8.60;7.40;;;;;;;13.64;87.29;100718.08;84732;1330;22613;-70
2022/08/30 02:42:54;;;;;;;9.80;8.10;;;;;;;13.63;87.29;100723.73;84711;1329;22630;-70
2022/08/30 02:45:08;;;;;;;8.80;7.90;;;;;;;13.62;87.32;100722.75;84710;1328;22612;-71
2022/08/30 02:47:21;;;;;;;8.40;7.50;;;;;;;13.61;87.56;100724.71;84701;1325;22782;-71
2022/08/30 02:49:36;;;;;;;9.90;8.20;;;;;;;13.58;87.44;100723.97;84738;1328;22599;-69
2022/08/30 02:51:52;;;;;;;10.40;7.80;;;;;;;13.56;87.66;100729.86;84704;1325;23058;-68
2022/08/30 02:54:05;;;;;;;9.40;7.40;;;;;;;13.55;87.80;100727.79;84693;1330;22587;-71
2022/08/30 02:56:24;;;;;;;11.70;9.10;;;;;;;13.55;87.98;100730.41;84704;1329;24830;-70
2022/08/30 02:58:37;;;;;;;12.10;8.10;;;;;;;13.55;88.09;100729.54;84641;1331;22617;-73
2022/08/30 03:00:48;;;;;;;11.00;8.10;;;;;;;13.55;88.15;100728.85;84607;1332;25503;-72
2022/08/30 03:03:02;;;;;;;11.40;8.00;;;;;;;13.54;88.10;100730.27;84681;1330;23949;-70
2022/08/30 03:05:16;;;;;;;10.20;8.10;;;;;;;13.53;88.12;100728.05;84662;1330;24256;-69
2022/08/30 03:07:36;;;;;;;10.20;7.60;;;;;;;13.51;88.03;100730.77;84707;1330;22619;-69
2022/08/30 03:09:53;;;;;;;8.30;7.30;;;;;;;13.51;88.26;100733.41;84725;1328;23014;-70
2022/08/30 03:12:12;;;;;;;9.70;8.80;;;;;;;13.50;88.46;100735.36;84713;1330;22808;-70
2022/08/30 03:14:28;;;;;;;9.70;8.10;;;;;;;13.51;88.50;100737.61;84577;1330;22604;-71
2022/08/30 03:16:41;;;;;;;11.70;9.40;;;;;;;13.49;88.45;100736.10;84672;1332;22625;-71
2022/08/30 03:18:51;;;;;;;11.00;9.00;;;;;;;13.49;88.65;100742.42;84688;1329;25465;-70
2022/08/30 03:21:08;;;;;;;9.10;8.20;;;;;;;13.50;88.91;100742.05;84682;1329;22641;-69
2022/08/30 03:23:24;;;;;;;9.80;8.70;;;;;;;13.51;88.95;100739.71;84702;1327;22591;-70
2022/08/30 03:25:39;;;;;;;11.70;7.60;;;;;;;13.51;88.90;100741.31;84711;1328;25465;-69
2022/08/30 03:27:49;;;;;;;9.40;7.80;;;;;;;13.50;88.88;100742.75;84689;1330;22600;-67
2022/08/30 03:30:00;;;;;;;11.70;8.10;;;;;;;13.48;88.79;100743.17;84674;1325;22606;-73
2022/08/30 03:32:12;;;;;;;11.40;9.40;;;;;;;13.47;88.95;100746.71;84686;1329;22584;-72
2022/08/30 03:34:25;;;;;;;9.60;8.60;;;;;;;13.47;88.96;100742.52;84712;1329;24249;-74
2022/08/30 03:36:38;;;;;;;10.20;8.40;;;;;;;13.47;89.09;100740.61;84676;1325;22612;-74
2022/08/30 03:38:53;;;;;;;11.20;9.60;;;;;;;13.47;89.21;100743.95;84727;1330;22596;-68
2022/08/30 03:41:09;;;;;;;11.70;9.80;;;;;;;13.45;89.12;100745.04;84703;1329;22605;-70
2022/08/30 03:43:28;;;;;;;13.70;10.20;;;;;;;13.45;89.19;100746.10;84212;1328;689070;-70
2022/08/30 03:45:41;;;;;;;10.10;8.50;;;;;;;13.45;89.41;100747.17;84713;1329;22714;-71
2022/08/30 03:47:55;;;;;;;11.70;8.60;;;;;;;13.45;89.54;100746.98;84764;1322;22658;-70
2022/08/30 03:50:06;;;;;;;9.50;8.60;;;;;;;13.46;89.80;100744.49;84648;1328;22599;-71
2022/08/30 03:52:17;;;;;;;11.40;9.20;;;;;;;13.47;89.75;100740.91;84767;1327;23997;-71
2022/08/30 03:54:33;;;;;;;9.60;8.40;;;;;;;13.48;89.86;100746.13;84801;1327;22613;-70
2022/08/30 03:56:51;;;;;;;11.80;9.20;;;;;;;13.49;89.87;100741.19;84702;1328;22684;-69
2022/08/30 03:59:03;;;;;;;8.90;8.10;;;;;;;13.50;89.92;100743.09;84663;1327;24273;-69
2022/08/30 04:01:14;;;;;;;10.40;9.50;;;;;;;13.51;89.95;100746.04;84763;1327;22722;-69
2022/08/30 04:03:27;;;;;;;9.90;8.80;;;;;;;13.51;89.90;100750.21;84748;1326;22594;-70
2022/08/30 04:05:38;;;;;;;9.90;9.00;;;;;;;13.52;89.97;100751.44;84753;1327;22600;-72
2022/08/30 04:07:49;;;;;;;9.60;8.70;;;;;;;13.51;89.85;100752.88;84779;1325;24285;-73
2022/08/30 04:10:02;;;;;;;8.70;7.80;;;;;;;13.50;89.87;100752.38;84726;1330;22780;-70
2022/08/30 04:12:15;;;;;;;10.00;8.40;;;;;;;13.49;89.84;100753.31;84671;1327;22586;-70
2022/08/30 04:14:28;;;;;;;11.30;8.50;;;;;;;13.48;89.98;100749.81;84671;1330;22580;-72
2022/08/30 04:16:42;;;;;;;10.10;8.80;;;;;;;13.50;90.17;100750.62;84677;1329;25859;-73
2022/08/30 04:18:59;;;;;;;13.30;8.90;;;;;;;13.55;90.63;100749.00;84771;1327;22612;-68
2022/08/30 04:21:12;;;;;;;9.60;8.40;;;;;;;13.62;90.94;100751.13;84773;1323;22975;-68
2022/08/30 04:23:27;;;;;;;10.60;9.50;;;;;;;13.69;91.34;100746.23;84633;1330;22596;-70
2022/08/30 04:25:39;;;;;;;9.60;8.70;;;;;;;13.78;91.50;100750.79;84679;1329;22594;-69
2022/08/30 04:27:50;;;;;;;11.70;9.40;;;;;;;13.86;91.72;100754.27;84755;1325;22611;-68
2022/08/30 04:30:02;;;;;;;9.60;8.60;;;;;;;13.96;92.04;100754.50;84685;1329;26118;-71
2022/08/30 04:32:19;;;;;;;8.90;8.00;;;;;;;14.05;92.35;100754.43;84756;1327;22620;-71
2022/08/30 04:34:31;;;;;;;8.90;8.10;;;;;;;14.15;92.36;100756.77;84757;1327;22631;-73
2022/08/30 04:36:41;;;;;;;8.40;7.20;;;;;;;14.24;92.53;100759.86;84680;1327;22621;-73
2022/08/30 04:38:54;;;;;;;8.30;7.40;;;;;;;14.31;92.43;100760.42;84764;1326;22609;-70
2022/08/30 04:41:10;;;;;;;11.00;8.30;;;;;;;14.38;92.49;100762.02;84782;1327;25444;-70
2022/08/30 04:43:25;;;;;;;8.00;6.80;;;;;;;14.47;92.64;100762.83;84695;1328;22702;-71
2022/08/30 04:45:38;;;;;;;12.00;7.20;;;;;;;14.56;92.60;100766.30;84649;1330;22829;-73
2022/08/30 04:47:50;;;;;;;8.60;7.00;;;;;;;14.63;92.44;100772.05;84727;1327;22580;-74
2022/08/30 04:50:02;;;;;;;7.40;6.70;;;;;;;14.70;92.35;100774.71;84667;1332;22606;-71
2022/08/30 04:52:15;;;;;;;8.90;7.00;;;;;;;14.77;92.27;100779.13;84753;1327;24270;-68
2022/08/30 04:54:28;;;;;;;7.70;7.00;;;;;;;14.83;92.22;100784.27;84738;1327;22630;-69
2022/08/30 04:56:39;;;;;;;11.90;7.00;;;;;;;14.89;92.12;100786.64;84660;1329;22738;-70
2022/08/30 04:58:57;;;;;;;7.10;6.40;;;;;;;14.94;92.13;100787.96;84671;1326;22600;-71
2022/08/30 05:01:19;;;;;;;9.20;7.20;;;;;;;15.00;92.04;100783.11;84750;1328;24227;-71
2022/08/30 05:03:39;;;;;;;6.30;5.70;;;;;;;15.07;92.02;100783.28;84703;1330;22606;-71
2022/08/30 05:05:57;;;;;;;12.90;6.90;;;;;;;15.13;91.99;100784.39;84673;1325;22745;-71
2022/08/30 05:08:10;;;;;;;7.60;6.20;;;;;;;15.17;91.82;100785.90;84688;1330;23924;-71
2022/08/30 05:10:24;;;;;;;6.50;5.60;;;;;;;15.23;91.76;100784.92;84748;1327;22705;-67
2022/08/30 05:12:39;;;;;;;8.30;5.60;;;;;;;15.30;91.76;100786.48;84696;1330;25441;-68
2022/08/30 05:14:56;;;;;;;8.50;6.00;;;;;;;15.37;91.72;100783.33;84680;1327;22607;-68
2022/08/30 05:17:09;;;;;;;7.00;5.40;;;;;;;15.43;91.48;100783.89;84773;1327;22773;-69
2022/08/30 05:19:22;;;;;;;6.70;5.40;;;;;;;15.48;91.28;100782.91;84689;1331;24283;-74
2022/08/30 05:21:39;;;;;;;10.20;5.80;;;;;;;15.54;91.23;100783.48;84751;1328;22847;-74
2022/08/30 05:23:52;;;;;;;5.20;4.60;;;;;;;15.62;91.21;100783.45;84777;1325;22611;-72
2022/08/30 05:26:10;;;;;;;5.70;4.90;;;;;;;15.69;91.30;100788.02;84683;1328;24235;-72
2022/08/30 05:28:22;;;;;;;5.20;4.70;;;;;;;15.77;90.93;100793.08;84747;1328;22641;-73
2022/08/30 05:30:38;;;;;;;6.80;4.30;;;;;;;15.82;90.87;100790.51;84756;1326;22837;-74
2022/08/30 05:32:52;;;;;;;4.70;4.20;;;;;;;15.87;90.47;100789.69;84675;1330;22590;-73
2022/08/30 05:35:13;;;;;;;6.40;4.00;;;;;;;15.92;90.16;100789.98;84777;1327;22663;-70
2022/08/30 05:37:25;;;;;;;6.00;3.60;;;;;;;15.98;90.29;100783.30;84743;1324;26756;-70
2022/08/30 05:39:37;;;;;;;5.30;4.00;;;;;;;16.07;90.34;100785.30;84729;1327;22658;-70
2022/08/30 05:41:57;;;;;;;5.20;3.40;;;;;;;16.14;90.14;100783.83;84747;1326;22609;-70
2022/08/30 05:44:14;;;;;;;5.00;3.60;;;;;;;16.21;89.81;100782.77;84760;1328;22596;-69
2022/08/30 05:46:28;;;;;;;3.60;3.10;;;;;;;16.27;89.55;100776.48;84736;1322;22610;-69
2022/08/30 05:48:39;;;;;;;4.40;3.70;;;;;;;16.37;89.89;100782.05;84789;1327;22745;-71
2022/08/30 05:51:07;;;;;;;4.50;2.80;;;;;;;16.47;89.63;100785.02;84764;1327;22601;-72
2022/08/30 05:53:22;;;;;;;5.20;3.40;;;;;;;16.58;89.49;100784.25;84762;1327;23031;-72
2022/08/30 05:55:38;;;;;;;7.00;3.60;;;;;;;16.69;89.50;100786.62;84754;1327;25324;-72
2022/08/30 05:57:55;;;;;;;3.90;3.20;;;;;;;16.77;88.93;100791.27;84740;1327;22707;-73
2022/08/30 06:00:14;;;;;;;5.00;2.90;;;;;;;16.83;88.17;100787.61;84564;1328;22670;-69
2022/08/30 06:02:27;;;;;;;5.90;2.80;;;;;;;16.89;88.06;100786.52;84778;1327;22609;-71
2022/08/30 06:04:38;;;;;;;3.90;3.50;;;;;;;16.99;88.20;100791.75;84763;1324;22627;-71
2022/08/30 06:06:47;;;;;;;4.30;3.00;;;;;;;17.12;88.22;100788.17;84670;1329;22602;-68
2022/08/30 06:09:00;;;;;;;3.50;3.20;;;;;;;17.28;87.75;100797.16;84744;1326;22630;-72
2022/08/30 06:11:14;;;;;;;4.80;3.10;;;;;;;17.34;86.99;100796.77;84756;1327;22590;-70
2022/08/30 06:13:28;;;;;;;5.00;2.60;;;;;;;17.40;86.81;100791.46;84792;1327;25344;-70
2022/08/30 06:15:43;;;;;;;3.00;2.70;;;;;;;17.48;86.42;100792.95;84783;1327;22643;-67
2022/08/30 06:17:54;;;;;;;2.60;2.30;;;;;;;17.60;86.32;100793.09;84765;1324;22611;-69
2022/08/30 06:20:16;;;;;;;3.20;2.30;;;;;;;17.74;86.15;100792.94;84702;1330;22616;-70
2022/08/30 06:22:37;;;;;;;6.80;2.60;;;;;;;17.96;85.47;100799.38;84707;1327;22625;-70
2022/08/30 06:24:50;;;;;;;3.40;2.20;;;;;;;18.08;84.89;100798.64;84714;1330;25415;-70
2022/08/30 06:27:05;;;;;;;4.80;2.00;;;;;;;18.21;84.15;100798.54;84684;1328;22778;-69
2022/08/30 06:29:19;;;;;;;2.90;2.10;;;;;;;18.39;83.85;100795.80;84714;1325;22612;-70
2022/08/30 06:31:37;;;;;;;4.90;1.90;;;;;;;18.57;83.19;100798.36;84705;1330;25477;-70
2022/08/30 06:33:52;;;;;;;2.30;1.80;;;;;;;18.64;82.29;100799.89;84820;1329;22615;-69
2022/08/30 06:36:12;;;;;;;2.60;1.80;;;;;;;18.62;80.59;100809.16;84690;1330;22655;-68
2022/08/30 06:38:40;;;;;;;2.80;1.90;;;;;;;18.53;80.33;100806.72;84676;1326;22588;-67
2022/08/30 06:41:01;;;;;;;5.00;2.60;;;;;;;18.49;80.22;100810.36;84591;1332;22641;-66
2022/08/30 06:43:30;;;;;;;2.20;1.60;;;;;;;18.51;80.30;100804.34;84688;1329;23931;-67
2022/08/30 06:45:43;;;;;;;3.40;1.80;;;;;;;18.56;79.96;100807.75;84563;1330;25543;-70
2022/08/30 06:47:58;;;;;;;3.30;1.80;;;;;;;18.59;79.72;100805.88;84604;1325;22614;-68
2022/08/30 06:50:15;;;;;;;2.70;1.70;;;;;;;18.57;79.26;100808.96;84679;1328;22644;-70
2022/08/30 06:52:32;;;;;;;2.20;1.30;;;;;;;18.53;78.83;100815.36;84685;1327;24418;-71
2022/08/30 06:54:53;;;;;;;6.10;2.00;;;;;;;18.45;78.51;100815.90;84730;1326;22608;-68
2022/08/30 06:57:11;;;;;;;2.10;1.50;;;;;;;18.44;78.69;100816.02;84699;1330;23965;-67
2022/08/30 06:59:23;;;;;;;3.30;1.60;;;;;;;18.43;78.60;100819.20;84553;1333;22600;-69
2022/08/30 07:01:35;;;;;;;3.70;1.40;;;;;;;18.44;78.62;100817.42;84619;1330;24073;-69
2022/08/30 07:03:51;;;;;;;3.60;2.10;;;;;;;18.44;78.53;100825.37;84693;1330;22694;-71
2022/08/30 07:06:05;;;;;;;2.00;1.60;;;;;;;18.44;78.38;100822.84;84671;1330;22583;-71
2022/08/30 07:08:24;;;;;;;2.30;1.60;;;;;;;18.46;78.38;100827.67;84602;1330;23960;-72
2022/08/30 07:10:50;;;;;;;2.50;1.50;;;;;;;18.50;78.24;100832.58;84688;1330;22809;-74
2022/08/30 07:13:05;;;;;;;3.50;1.90;;;;;;;18.55;78.41;100838.59;84675;1328;25445;-68
2022/08/30 07:15:30;;;;;;;3.80;2.00;;;;;;;18.58;78.14;100843.17;84652;1333;22595;-70
2022/08/30 07:20:13;;;;;;;;;;;;;;;18.65;77.74;100844.87;84741;1324;22798;-70
2022/08/30 07:22:29;;;;;;;2.90;1.70;;;;;;;18.67;77.82;100844.02;84676;1329;22598;-71
2022/08/30 07:24:45;;;;;;;3.40;2.00;;;;;;;18.73;77.77;100843.84;84668;1327;22584;-68
2022/08/30 07:26:58;;;;;;;1.40;1.30;;;;;;;18.80;77.55;100843.18;84672;1329;22649;-67
2022/08/30 07:29:15;;;;;;;4.60;2.30;;;;;;;18.92;77.66;100843.50;84693;1328;23044;-69
2022/08/30 07:31:42;;;;;;;2.90;1.50;;;;;;;19.03;77.18;100849.50;84673;1331;22584;-69
2022/08/30 07:33:57;;;;;;;2.10;1.50;;;;;;;19.13;77.14;100849.34;84696;1327;24064;-69
2022/08/30 07:36:16;;;;;;;1.90;1.70;;;;;;;19.24;76.69;100851.64;84662;1329;22845;-68
2022/08/30 07:38:27;;;;;;;2.20;1.50;;;;;;;19.32;76.66;100854.81;84640;1329;24381;-70
2022/08/30 07:40:45;;;;;;;2.40;1.50;;;;;;;19.42;76.33;100852.70;84705;1332;22603;-68
2022/08/30 07:42:57;;;;;;;3.30;1.80;;;;;;;19.54;76.30;100857.52;84661;1330;25442;-66
2022/08/30 07:45:11;;;;;;;3.00;1.70;;;;;;;19.67;75.96;100854.44;84585;1333;22713;-71
2022/08/30 07:47:22;;;;;;;6.40;2.10;;;;;;;19.80;76.28;100852.62;84678;1330;23988;-72
2022/08/30 07:49:37;;;;;;;3.10;1.60;;;;;;;19.95;75.94;100857.23;84643;1327;22616;-71
2022/08/30 07:51:56;;;;;;;4.30;2.00;;;;;;;20.07;75.58;100858.91;84597;1330;25268;-72
2022/08/30 07:54:13;;;;;;;3.20;2.00;;;;;;;20.13;74.76;100859.95;84707;1328;22597;-70
2022/08/30 07:56:30;;;;;;;2.90;2.00;;;;;;;20.12;74.31;100864.41;84704;1327;22589;-71
2022/08/30 07:58:51;;;;;;;3.40;1.90;;;;;;;20.16;73.77;100862.50;84636;1329;22609;-70
2022/08/30 08:01:12;;;;;;;2.50;2.00;;;;;;;20.25;73.78;100865.23;84572;1328;22698;-71
2022/08/30 08:03:28;;;;;;;2.20;1.50;;;;;;;20.33;73.57;100865.58;84698;1330;23902;-70
2022/08/30 08:05:44;;;;;;;3.00;1.80;;;;;;;20.41;73.38;100862.02;84710;1328;22621;-68
2022/08/30 08:07:59;;;;;;;1.70;1.50;;;;;;;20.53;73.21;100862.94;84605;1330;22741;-68
2022/08/30 08:10:15;;;;;;;3.20;1.30;;;;;;;20.67;73.17;100865.66;84666;1332;22658;-72
2022/08/30 08:12:30;;;;;;;3.30;1.40;;;;;;;20.75;72.44;100867.70;84711;1327;22578;-72
2022/08/30 08:14:43;;;;;;;4.50;1.30;;;;;;;20.77;72.03;100869.34;84555;1333;22600;-70
2022/08/30 08:16:58;;;;;;;1.90;1.40;;;;;;;20.79;71.48;100872.58;84646;1325;22593;-71
2022/08/30 08:19:09;;;;;;;1.30;1.20;;;;;;;20.81;71.00;100871.92;84614;1330;25446;-71
2022/08/30 08:21:25;;;;;;;1.50;1.20;;;;;;;20.89;71.28;100871.65;84604;1330;24452;-72
2022/08/30 08:23:38;;;;;;;2.40;1.00;;;;;;;20.97;70.72;100871.81;84680;1327;22601;-73
2022/08/30 08:25:50;;;;;;;2.40;1.40;;;;;;;20.98;70.40;100876.87;84553;1335;22649;-71
2022/08/30 08:28:07;;;;;;;4.80;1.70;;;;;;;20.94;69.55;100877.34;84557;1331;22611;-71
2022/08/30 08:30:36;;;;;;;2.30;1.20;;;;;;;20.85;69.15;100878.86;84669;1330;22607;-72
2022/08/30 08:32:56;;;;;;;1.30;1.00;;;;;;;20.77;69.20;100881.23;84672;1329;24282;-73
2022/08/30 08:35:10;;;;;;;2.30;1.80;;;;;;;20.82;69.81;100880.55;84679;1329;22771;-69
2022/08/30 08:37:28;;;;;;;2.00;1.20;;;;;;;21.01;70.40;100879.09;84694;1329;26525;-69
2022/08/30 08:39:43;;;;;;;2.20;1.10;;;;;;;21.27;70.38;100880.41;84594;1330;26468;-68
2022/08/30 08:42:13;;;;;;;2.90;1.20;;;;;;;21.42;68.86;100878.38;84680;1324;22805;-68
2022/08/30 08:44:39;;;;;;;2.10;1.00;;;;;;;21.46;68.30;100882.73;84658;1321;22586;-68
2022/08/30 08:47:04;;;;;;;1.90;0.80;;;;;;;21.42;67.46;100881.80;84700;1328;22687;-68
2022/08/30 08:49:15;;;;;;;1.20;0.90;;;;;;;21.35;67.41;100885.48;84701;1327;23077;-71
2022/08/30 08:54:31;;;;;;;2.60;1.30;;;;;;;21.36;67.70;100885.58;84730;1330;22599;-68
2022/08/30 08:57:14;;;;;;;1.40;0.90;;;;;;;21.46;67.15;100886.27;84726;1330;22748;-73
2022/08/30 08:59:33;;;;;;;1.20;1.00;;;;;;;21.61;67.53;100887.23;84676;1328;22617;-72
2022/08/30 09:01:55;;;;;;;1.00;0.80;;;;;;;21.69;66.55;100888.95;84612;1332;22589;-72
2022/08/30 09:04:12;;;;;;;1.70;0.90;;;;;;;21.71;66.31;100890.27;84623;1327;22701;-72
2022/08/30 09:06:43;;;;;;;1.50;1.20;;;;;;;21.69;65.56;100890.36;84697;1328;22618;-73
2022/08/30 09:09:03;;;;;;;1.70;0.90;;;;;;;21.72;65.95;100890.67;84702;1321;22662;-71
2022/08/30 09:11:21;;;;;;;2.70;1.00;;;;;;;21.88;66.23;100892.15;84676;1326;22601;-72
2022/08/30 09:13:40;;;;;;;2.40;1.10;;;;;;;22.05;66.39;100888.16;84691;1328;22622;-70
2022/08/30 09:16:08;;;;;;;1.80;0.80;;;;;;;22.12;64.95;100889.59;84648;1330;22589;-70
2022/08/30 09:18:22;;;;;;;;;;;;;;;22.00;64.66;100892.83;84701;1330;22586;-70
2022/08/30 09:20:42;;;;;;;2.60;0.90;;;;;;;21.93;64.96;100891.36;84684;1329;22649;-68
2022/08/30 09:22:52;;;;;;;4.80;1.00;;;;;;;21.92;64.46;100890.00;84688;1329;24091;-68
2022/08/30 09:25:10;;;;;;;3.40;1.10;;;;;;;21.92;65.18;100888.77;84697;1328;22605;-70
2022/08/30 09:27:29;;;;;;;1.40;0.80;;;;;;;22.11;65.72;100886.05;84597;1330;24283;-71
2022/08/30 09:29:51;;;;;;;0.70;0.70;;;;;;;22.48;65.45;100892.56;84620;1327;22832;-71
2022/08/30 09:32:01;;;;;;;2.50;0.90;;;;;;;22.66;63.97;100889.73;84672;1327;22616;-72
2022/08/30 09:34:25;;;;;;;2.00;0.80;;;;;;;22.63;63.37;100892.81;84632;1327;24447;-70
2022/08/30 09:36:45;;;;;;;2.50;0.80;;;;;;;22.63;63.18;100896.41;84661;1326;24239;-75
2022/08/30 09:39:17;;;;;;;2.30;0.90;;;;;;;22.65;63.04;100892.05;84658;1329;24242;-69
2022/08/30 09:41:52;;;;;;;1.70;0.80;;;;;;;22.67;63.07;100889.30;84687;1327;22593;-68
2022/08/30 09:44:26;;;;;;;0.50;0.50;;;;;;;22.64;62.91;100895.89;84698;1321;22634;-68
2022/08/30 09:46:40;;;;;;;1.10;0.60;;;;;;;22.56;62.69;100897.61;84711;1330;22600;-69
2022/08/30 09:49:05;;;;;;;1.90;1.30;;;;;;;22.48;62.84;100897.58;84674;1324;22690;-72
2022/08/30 09:51:51;;;;;;;1.20;0.90;;;;;;;22.41;62.96;100897.41;84698;1330;25336;-72
2022/08/30 09:54:17;;;;;;;1.20;0.70;;;;;;;22.32;62.92;100894.89;84668;1328;25468;-69
2022/08/30 09:56:34;;;;;;;0.50;0.50;;;;;;;22.28;63.12;100894.91;84683;1328;22890;-68
2022/08/30 09:59:01;;;;;;;1.90;0.70;;;;;;;22.22;62.82;100901.91;84722;1326;22590;-68
2022/08/30 10:01:24;;;;;;;1.70;0.60;;;;;;;22.12;62.75;100900.37;84684;1328;22746;-68
2022/08/30 10:03:50;;;;;;;1.90;1.00;;;;;;;22.03;62.81;100903.05;84714;1328;22636;-68
2022/08/30 10:06:12;;;;;;;3.30;0.60;;;;;;;21.97;63.21;100900.86;84689;1321;22589;-69
2022/08/30 10:08:42;;;;;;;1.50;0.80;;;;;;;22.01;63.17;100902.48;84691;1327;24340;-68
2022/08/30 10:11:24;;;;;;;0.80;0.50;;;;;;;22.13;63.56;100897.27;84586;1330;22641;-72
2022/08/30 10:14:24;;;;;;;0.80;0.60;;;;;;;22.31;63.29;100896.08;84677;1328;22605;-69
2022/08/30 10:17:00;;;;;;;1.10;0.70;;;;;;;22.45;62.50;100899.59;84574;1330;22593;-69
2022/08/30 10:19:48;;;;;;;3.70;0.90;;;;;;;22.46;61.87;100900.57;84680;1329;22604;-69
2022/08/30 10:22:07;;;;;;;1.30;0.70;;;;;;;22.39;61.50;100906.07;84624;1321;24275;-69
2022/08/30 10:24:31;;;;;;;2.30;0.60;;;;;;;22.30;61.44;100910.73;84588;1331;25435;-71
2022/08/30 10:27:12;;;;;;;1.60;0.70;;;;;;;22.21;61.60;100915.73;84516;1328;22579;-73
2022/08/30 10:29:38;;;;;;;2.50;0.70;;;;;;;22.13;61.82;100917.86;84654;1330;25614;-69
2022/08/30 10:31:56;;;;;;;1.70;0.60;;;;;;;22.06;61.79;100918.59;84607;1330;25341;-71
2022/08/30 10:34:24;;;;;;;2.40;1.20;;;;;;;22.01;61.62;100918.12;84685;1328;22597;-71
2022/08/30 10:36:52;;;;;;;2.10;0.50;;;;;;;21.93;61.52;100917.86;84659;1329;25451;-70
2022/08/30 10:39:06;;;;;;;2.80;0.80;;;;;;;21.88;61.54;100917.33;84790;1327;23017;-71
2022/08/30 10:41:28;;;;;;;2.40;0.60;;;;;;;21.87;61.74;100915.26;84695;1329;22851;-72